This is the latest recevied weather packets stored in our database for station/object G7UKK-10. If no packets are shown the sender has not sent any weather packets the latest 10 day(s).
| Time | Temp. | Humidity | Pressure | Rain* | Wind** | Luminosity | Snow |
|---|---|---|---|---|---|---|---|
| 1777587917 | 8.89° C | 72% | 1024.4 hPa | 0 mm | - | - | - |
| 1777587017 | 9.44° C | 71% | 1024.4 hPa | 0 mm | - | - | - |
| 1777586116 | 9.44° C | 69% | 1024.3 hPa | 0 mm | - | - | - |
| 1777585217 | 10° C | 69% | 1024.4 hPa | 0 mm | - | - | - |
| 1777584317 | 10° C | 68% | 1024.5 hPa | 0 mm | - | - | - |
| 1777583417 | 10.56° C | 67% | 1024.5 hPa | 0 mm | - | - | - |
| 1777582517 | 11.11° C | 64% | 1024.4 hPa | 0 mm | - | - | - |
| 1777581617 | 11.67° C | 62% | 1024.3 hPa | 0 mm | - | - | - |
| 1777580717 | 12.22° C | 60% | 1024 hPa | 0 mm | - | - | - |
| 1777579817 | 12.22° C | 60% | 1024.1 hPa | 0 mm | - | - | - |
| 1777578917 | 12.78° C | 59% | 1024 hPa | 0 mm | - | - | - |
| 1777578017 | 13.33° C | 58% | 1024 hPa | 0 mm | - | - | - |
| 1777577116 | 13.89° C | 56% | 1023.7 hPa | 0 mm | - | - | - |
| 1777576216 | 13.89° C | 57% | 1023.9 hPa | 0 mm | - | - | - |
| 1777575317 | 15° C | 55% | 1023.5 hPa | 0 mm | - | - | - |
| 1777574416 | 15.56° C | 53% | 1023.3 hPa | 0 mm | - | - | - |
| 1777573516 | 16.11° C | 52% | 1023.4 hPa | 0 mm | - | - | - |
| 1777572617 | 16.11° C | 53% | 1023.4 hPa | 0 mm | - | - | - |
| 1777571716 | 16.67° C | 52% | 1023.3 hPa | 0 mm | - | - | - |
| 1777570816 | 17.22° C | 50% | 1022.8 hPa | 0 mm | - | - | - |
| 1777569917 | 17.78° C | 49% | 1023 hPa | 0 mm | - | - | - |
| 1777569017 | 17.78° C | 50% | 1022.6 hPa | 0 mm | - | - | - |
| 1777568117 | 18.33° C | 48% | 1022.9 hPa | 0 mm | - | - | - |
| 1777567217 | 18.89° C | 43% | 1023.2 hPa | 0 mm | - | - | - |
| 1777566316 | 19.44° C | 43% | 1023.3 hPa | 0 mm | - | - | - |
* Rain latest hour (hover to see other rain measurements)
** Current wind speed in m/s (hover to see current wind gust speed)